sensor_id;sensor_type;location;lat;lon;timestamp;pressure;altitude;pressure_sealevel;temperature;humidity
60583;BME280;46415;47.536;19.066;2023-01-27T00:00:35;100520.62;;;1.00;100.00
60583;BME280;46415;47.536;19.066;2023-01-27T00:03:38;100515.47;;;1.09;100.00
60583;BME280;46415;47.536;19.066;2023-01-27T00:06:41;100520.62;;;0.97;100.00
60583;BME280;46415;47.536;19.066;2023-01-27T00:09:44;100510.41;;;0.97;100.00
60583;BME280;46415;47.536;19.066;2023-01-27T00:12:47;100511.25;;;0.96;100.00
60583;BME280;46415;47.536;19.066;2023-01-27T00:16:08;100511.25;;;0.93;100.00
60583;BME280;46415;47.536;19.066;2023-01-27T00:19:11;100510.41;;;0.90;100.00
60583;BME280;46415;47.536;19.066;2023-01-27T00:22:14;100508.72;;;0.87;100.00
60583;BME280;46415;47.536;19.066;2023-01-27T00:25:35;100507.87;;;0.88;100.00
60583;BME280;46415;47.536;19.066;2023-01-27T00:28:39;100507.84;;;0.93;100.00
60583;BME280;46415;47.536;19.066;2023-01-27T00:31:42;100499.34;;;0.85;100.00
60583;BME280;46415;47.536;19.066;2023-01-27T00:35:04;100502.75;;;0.83;100.00
60583;BME280;46415;47.536;19.066;2023-01-27T00:38:07;100500.19;;;0.85;100.00
60583;BME280;46415;47.536;19.066;2023-01-27T00:41:09;100506.16;;;0.93;100.00
60583;BME280;46415;47.536;19.066;2023-01-27T00:44:21;100498.50;;;0.84;100.00
60583;BME280;46415;47.536;19.066;2023-01-27T00:47:25;100505.34;;;0.82;100.00
60583;BME280;46415;47.536;19.066;2023-01-27T00:50:28;100504.47;;;0.78;100.00
60583;BME280;46415;47.536;19.066;2023-01-27T00:53:31;100495.97;;;0.79;100.00
60583;BME280;46415;47.536;19.066;2023-01-27T00:56:35;100504.47;;;0.74;100.00
60583;BME280;46415;47.536;19.066;2023-01-27T00:59:38;100506.16;;;0.78;100.00
60583;BME280;46415;47.536;19.066;2023-01-27T01:02:41;100507.06;;;0.77;100.00
60583;BME280;46415;47.536;19.066;2023-01-27T01:05:43;100494.25;;;0.78;100.00
60583;BME280;46415;47.536;19.066;2023-01-27T01:08:46;100493.44;;;0.76;100.00
60583;BME280;46415;47.536;19.066;2023-01-27T01:11:50;100498.53;;;0.75;100.00
60583;BME280;46415;47.536;19.066;2023-01-27T01:14:53;100498.53;;;0.75;100.00
60583;BME280;46415;47.536;19.066;2023-01-27T01:17:56;100503.62;;;0.73;100.00
60583;BME280;46415;47.536;19.066;2023-01-27T01:20:59;100495.13;;;0.70;100.00
60583;BME280;46415;47.536;19.066;2023-01-27T01:24:02;100489.16;;;0.68;100.00
60583;BME280;46415;47.536;19.066;2023-01-27T01:27:05;100490.88;;;0.64;100.00
60583;BME280;46415;47.536;19.066;2023-01-27T01:30:08;100495.13;;;0.67;100.00
60583;BME280;46415;47.536;19.066;2023-01-27T01:33:14;100487.50;;;0.65;100.00
60583;BME280;46415;47.536;19.066;2023-01-27T01:36:19;100496.00;;;0.57;100.00
60583;BME280;46415;47.536;19.066;2023-01-27T01:39:22;100492.59;;;0.52;100.00
60583;BME280;46415;47.536;19.066;2023-01-27T01:42:25;100482.41;;;0.52;100.00
60583;BME280;46415;47.536;19.066;2023-01-27T01:48:36;100485.78;;;0.43;100.00
60583;BME280;46415;47.536;19.066;2023-01-27T01:51:45;100490.03;;;0.49;100.00
60583;BME280;46415;47.536;19.066;2023-01-27T01:54:50;100490.91;;;0.45;100.00
60583;BME280;46415;47.536;19.066;2023-01-27T01:57:55;100480.69;;;0.45;100.00
60583;BME280;46415;47.536;19.066;2023-01-27T02:00:58;100482.41;;;0.35;100.00
60583;BME280;46415;47.536;19.066;2023-01-27T02:04:04;100484.09;;;0.33;100.00
60583;BME280;46415;47.536;19.066;2023-01-27T02:07:18;100480.72;;;0.34;100.00
60583;BME280;46415;47.536;19.066;2023-01-27T02:10:25;100475.59;;;0.38;100.00
60583;BME280;46415;47.536;19.066;2023-01-27T02:13:28;100473.88;;;0.36;100.00
60583;BME280;46415;47.536;19.066;2023-01-27T02:16:31;100466.25;;;0.34;100.00
60583;BME280;46415;47.536;19.066;2023-01-27T02:23:03;100453.50;;;0.28;100.00
60583;BME280;46415;47.536;19.066;2023-01-27T02:26:27;100452.66;;;0.29;100.00
60583;BME280;46415;47.536;19.066;2023-01-27T02:29:31;100453.47;;;0.25;100.00
60583;BME280;46415;47.536;19.066;2023-01-27T02:32:34;100450.94;;;0.19;100.00
60583;BME280;46415;47.536;19.066;2023-01-27T02:35:41;100456.91;;;0.23;100.00
60583;BME280;46415;47.536;19.066;2023-01-27T02:38:49;100453.50;;;0.21;100.00
60583;BME280;46415;47.536;19.066;2023-01-27T02:41:56;100442.44;;;0.17;100.00
60583;BME280;46415;47.536;19.066;2023-01-27T02:45:00;100438.19;;;0.15;100.00
60583;BME280;46415;47.536;19.066;2023-01-27T02:48:03;100430.53;;;0.10;100.00
60583;BME280;46415;47.536;19.066;2023-01-27T02:51:06;100427.97;;;0.09;100.00
60583;BME280;46415;47.536;19.066;2023-01-27T02:54:09;100428.81;;;0.03;100.00
60583;BME280;46415;47.536;19.066;2023-01-27T02:57:12;100422.88;;;-0.01;100.00
60583;BME280;46415;47.536;19.066;2023-01-27T03:00:17;100428.84;;;-0.12;100.00
60583;BME280;46415;47.536;19.066;2023-01-27T03:03:20;100420.31;;;-0.17;100.00
60583;BME280;46415;47.536;19.066;2023-01-27T03:06:23;100414.38;;;-0.27;100.00
60583;BME280;46415;47.536;19.066;2023-01-27T03:09:26;100410.09;;;-0.40;100.00
60583;BME280;46415;47.536;19.066;2023-01-27T03:12:29;100405.84;;;-0.52;100.00
60583;BME280;46415;47.536;19.066;2023-01-27T03:15:32;100405.81;;;-0.64;100.00
60583;BME280;46415;47.536;19.066;2023-01-27T03:18:56;100404.97;;;-0.72;100.00
60583;BME280;46415;47.536;19.066;2023-01-27T03:22:00;100396.44;;;-0.77;100.00
60583;BME280;46415;47.536;19.066;2023-01-27T03:25:05;100398.97;;;-0.83;100.00
60583;BME280;46415;47.536;19.066;2023-01-27T03:28:10;100398.09;;;-0.88;100.00
60583;BME280;46415;47.536;19.066;2023-01-27T03:31:13;100397.25;;;-0.89;100.00
60583;BME280;46415;47.536;19.066;2023-01-27T03:34:23;100400.66;;;-0.96;100.00
60583;BME280;46415;47.536;19.066;2023-01-27T03:37:26;100394.66;;;-1.04;100.00
60583;BME280;46415;47.536;19.066;2023-01-27T03:40:48;100391.25;;;-1.09;100.00
60583;BME280;46415;47.536;19.066;2023-01-27T03:44:09;100391.22;;;-1.12;100.00
60583;BME280;46415;47.536;19.066;2023-01-27T03:47:31;100390.38;;;-1.15;100.00
60583;BME280;46415;47.536;19.066;2023-01-27T03:50:34;100385.28;;;-1.17;100.00
60583;BME280;46415;47.536;19.066;2023-01-27T03:53:40;100383.59;;;-1.19;100.00
60583;BME280;46415;47.536;19.066;2023-01-27T03:56:42;100381.84;;;-1.24;100.00
60583;BME280;46415;47.536;19.066;2023-01-27T03:59:46;100378.44;;;-1.27;100.00
60583;BME280;46415;47.536;19.066;2023-01-27T04:02:52;100372.47;;;-1.34;100.00
60583;BME280;46415;47.536;19.066;2023-01-27T04:06:16;100371.63;;;-1.34;100.00
60583;BME280;46415;47.536;19.066;2023-01-27T04:09:38;100365.69;;;-1.30;100.00
60583;BME280;46415;47.536;19.066;2023-01-27T04:12:41;100369.13;;;-1.24;100.00
60583;BME280;46415;47.536;19.066;2023-01-27T04:15:43;100365.75;;;-1.16;100.00
60583;BME280;46415;47.536;19.066;2023-01-27T04:18:46;100361.53;;;-1.10;100.00
60583;BME280;46415;47.536;19.066;2023-01-27T04:21:51;100369.19;;;-1.05;100.00
60583;BME280;46415;47.536;19.066;2023-01-27T04:24:55;100359.03;;;-1.02;100.00
60583;BME280;46415;47.536;19.066;2023-01-27T04:27:57;100360.72;;;-1.03;100.00
60583;BME280;46415;47.536;19.066;2023-01-27T04:31:00;100364.97;;;-1.02;100.00
60583;BME280;46415;47.536;19.066;2023-01-27T04:34:03;100374.28;;;-1.08;100.00
60583;BME280;46415;47.536;19.066;2023-01-27T04:37:07;100371.69;;;-1.13;100.00
60583;BME280;46415;47.536;19.066;2023-01-27T04:40:10;100364.94;;;-1.11;100.00
60583;BME280;46415;47.536;19.066;2023-01-27T04:43:13;100370.00;;;-1.17;100.00
60583;BME280;46415;47.536;19.066;2023-01-27T04:46:16;100368.25;;;-1.24;100.00
60583;BME280;46415;47.536;19.066;2023-01-27T04:49:19;100375.91;;;-1.24;100.00
60583;BME280;46415;47.536;19.066;2023-01-27T04:52:22;100371.66;;;-1.31;100.00
60583;BME280;46415;47.536;19.066;2023-01-27T04:55:25;100369.09;;;-1.34;100.00
60583;BME280;46415;47.536;19.066;2023-01-27T04:58:27;100380.09;;;-1.35;100.00
60583;BME280;46415;47.536;19.066;2023-01-27T05:01:31;100382.66;;;-1.38;100.00
60583;BME280;46415;47.536;19.066;2023-01-27T05:04:34;100377.50;;;-1.46;100.00
60583;BME280;46415;47.536;19.066;2023-01-27T05:07:37;100387.69;;;-1.50;100.00
60583;BME280;46415;47.536;19.066;2023-01-27T05:10:42;100394.44;;;-1.54;100.00
60583;BME280;46415;47.536;19.066;2023-01-27T05:13:47;100391.84;;;-1.60;100.00
60583;BME280;46415;47.536;19.066;2023-01-27T05:16:49;100385.03;;;-1.64;100.00
60583;BME280;46415;47.536;19.066;2023-01-27T05:19:53;100390.97;;;-1.68;100.00
60583;BME280;46415;47.536;19.066;2023-01-27T05:22:56;100389.22;;;-1.72;100.00
60583;BME280;46415;47.536;19.066;2023-01-27T05:26:24;100379.06;;;-1.72;100.00
60583;BME280;46415;47.536;19.066;2023-01-27T05:29:27;100372.28;;;-1.75;100.00
60583;BME280;46415;47.536;19.066;2023-01-27T05:32:30;100374.81;;;-1.75;100.00
60583;BME280;46415;47.536;19.066;2023-01-27T05:35:34;100378.19;;;-1.77;100.00
60583;BME280;46415;47.536;19.066;2023-01-27T05:38:37;100374.78;;;-1.78;100.00
60583;BME280;46415;47.536;19.066;2023-01-27T05:41:40;100385.84;;;-1.74;100.00
60583;BME280;46415;47.536;19.066;2023-01-27T05:44:43;100381.62;;;-1.71;100.00
60583;BME280;46415;47.536;19.066;2023-01-27T05:47:49;100380.75;;;-1.71;100.00
60583;BME280;46415;47.536;19.066;2023-01-27T05:50:54;100386.72;;;-1.69;100.00
60583;BME280;46415;47.536;19.066;2023-01-27T05:53:57;100385.03;;;-1.69;100.00
60583;BME280;46415;47.536;19.066;2023-01-27T05:56:59;100384.22;;;-1.63;100.00
60583;BME280;46415;47.536;19.066;2023-01-27T06:00:03;100385.91;;;-1.60;100.00
60583;BME280;46415;47.536;19.066;2023-01-27T06:03:10;100383.34;;;-1.60;100.00
60583;BME280;46415;47.536;19.066;2023-01-27T06:06:14;100385.94;;;-1.56;100.00
60583;BME280;46415;47.536;19.066;2023-01-27T06:09:17;100383.41;;;-1.53;100.00
60583;BME280;46415;47.536;19.066;2023-01-27T06:12:20;100385.13;;;-1.47;100.00
60583;BME280;46415;47.536;19.066;2023-01-27T06:15:23;100377.53;;;-1.44;100.00
60583;BME280;46415;47.536;19.066;2023-01-27T06:18:28;100380.94;;;-1.44;100.00
60583;BME280;46415;47.536;19.066;2023-01-27T06:21:31;100376.72;;;-1.39;100.00
60583;BME280;46415;47.536;19.066;2023-01-27T06:24:34;100369.06;;;-1.36;100.00
60583;BME280;46415;47.536;19.066;2023-01-27T06:27:37;100367.38;;;-1.31;100.00
60583;BME280;46415;47.536;19.066;2023-01-27T06:30:40;100364.06;;;-1.20;100.00
60583;BME280;46415;47.536;19.066;2023-01-27T06:33:43;100381.06;;;-1.09;100.00
60583;BME280;46415;47.536;19.066;2023-01-27T06:36:46;100369.19;;;-0.99;100.00
60583;BME280;46415;47.536;19.066;2023-01-27T06:39:50;100378.56;;;-0.92;100.00
60583;BME280;46415;47.536;19.066;2023-01-27T06:42:53;100381.12;;;-0.77;100.00
60583;BME280;46415;47.536;19.066;2023-01-27T06:45:56;100374.38;;;-0.64;100.00
60583;BME280;46415;47.536;19.066;2023-01-27T06:49:01;100376.09;;;-0.53;100.00
60583;BME280;46415;47.536;19.066;2023-01-27T06:52:04;100383.75;;;-0.44;100.00
60583;BME280;46415;47.536;19.066;2023-01-27T06:55:07;100384.62;;;-0.32;97.53
60583;BME280;46415;47.536;19.066;2023-01-27T06:58:11;100381.19;;;-0.18;96.47
60583;BME280;46415;47.536;19.066;2023-01-27T07:01:15;100382.91;;;-0.09;95.09
60583;BME280;46415;47.536;19.066;2023-01-27T07:04:18;100399.91;;;0.04;94.07
60583;BME280;46415;47.536;19.066;2023-01-27T07:07:21;100388.84;;;0.07;93.13
60583;BME280;46415;47.536;19.066;2023-01-27T07:10:24;100387.16;;;0.15;92.73
60583;BME280;46415;47.536;19.066;2023-01-27T07:13:27;100387.13;;;0.21;93.79
60583;BME280;46415;47.536;19.066;2023-01-27T07:16:30;100387.97;;;0.27;94.04
60583;BME280;46415;47.536;19.066;2023-01-27T07:19:33;100389.66;;;0.34;92.87
60583;BME280;46415;47.536;19.066;2023-01-27T07:22:37;100391.31;;;0.57;92.31
60583;BME280;46415;47.536;19.066;2023-01-27T07:25:40;100398.09;;;0.64;90.99
60583;BME280;46415;47.536;19.066;2023-01-27T07:28:44;100398.91;;;0.72;91.26
60583;BME280;46415;47.536;19.066;2023-01-27T07:31:46;100404.84;;;0.80;91.06
60583;BME280;46415;47.536;19.066;2023-01-27T07:34:49;100403.97;;;0.87;88.60
60583;BME280;46415;47.536;19.066;2023-01-27T07:37:52;100405.63;;;1.00;89.20
60583;BME280;46415;47.536;19.066;2023-01-27T07:40:55;100414.13;;;1.07;86.60
60583;BME280;46415;47.536;19.066;2023-01-27T07:43:59;100406.41;;;1.17;87.97
60583;BME280;46415;47.536;19.066;2023-01-27T07:47:02;100397.00;;;1.21;87.68
60583;BME280;46415;47.536;19.066;2023-01-27T07:50:06;100391.00;;;1.27;85.46
60583;BME280;46415;47.536;19.066;2023-01-27T07:53:13;100394.38;;;1.32;85.80
60583;BME280;46415;47.536;19.066;2023-01-27T07:56:16;100387.62;;;1.25;83.48
60583;BME280;46415;47.536;19.066;2023-01-27T07:59:19;100387.66;;;1.18;85.38
60583;BME280;46415;47.536;19.066;2023-01-27T08:02:22;100390.97;;;1.33;84.57
60583;BME280;46415;47.536;19.066;2023-01-27T08:05:27;100391.88;;;1.21;86.05
60583;BME280;46415;47.536;19.066;2023-01-27T08:08:29;100391.81;;;1.35;84.84
60583;BME280;46415;47.536;19.066;2023-01-27T08:11:32;100392.66;;;1.34;84.94
60583;BME280;46415;47.536;19.066;2023-01-27T08:14:35;100397.72;;;1.46;83.25
60583;BME280;46415;47.536;19.066;2023-01-27T08:17:38;100400.19;;;1.56;82.91
60583;BME280;46415;47.536;19.066;2023-01-27T08:20:42;100391.56;;;1.70;83.41
60583;BME280;46415;47.536;19.066;2023-01-27T08:23:47;100398.41;;;1.69;81.95
60583;BME280;46415;47.536;19.066;2023-01-27T08:26:50;100407.84;;;1.58;82.54
60583;BME280;46415;47.536;19.066;2023-01-27T08:29:53;100402.81;;;1.49;81.28
60583;BME280;46415;47.536;19.066;2023-01-27T08:32:56;100406.25;;;1.42;82.67
60583;BME280;46415;47.536;19.066;2023-01-27T08:36:09;100399.44;;;1.38;82.39
60583;BME280;46415;47.536;19.066;2023-01-27T08:39:12;100405.38;;;1.44;81.70
60583;BME280;46415;47.536;19.066;2023-01-27T08:42:15;100406.19;;;1.49;83.47
60583;BME280;46415;47.536;19.066;2023-01-27T08:45:18;100410.37;;;1.61;81.03
60583;BME280;46415;47.536;19.066;2023-01-27T08:48:21;100412.91;;;1.67;80.95
60583;BME280;46415;47.536;19.066;2023-01-27T08:51:24;100404.31;;;1.74;81.62
60583;BME280;46415;47.536;19.066;2023-01-27T08:54:27;100418.78;;;1.83;80.33
60583;BME280;46415;47.536;19.066;2023-01-27T08:57:29;100410.19;;;1.90;81.38
60583;BME280;46415;47.536;19.066;2023-01-27T09:00:34;100415.28;;;1.91;79.34
60583;BME280;46415;47.536;19.066;2023-01-27T09:03:37;100416.16;;;1.87;79.08
60583;BME280;46415;47.536;19.066;2023-01-27T09:06:40;100411.81;;;2.01;78.47
60583;BME280;46415;47.536;19.066;2023-01-27T09:09:46;100416.94;;;2.00;77.48
60583;BME280;46415;47.536;19.066;2023-01-27T09:12:49;100417.69;;;2.10;73.68
60583;BME280;46415;47.536;19.066;2023-01-27T09:15:52;100413.41;;;2.09;71.85
60583;BME280;46415;47.536;19.066;2023-01-27T09:18:55;100422.84;;;2.07;71.68
60583;BME280;46415;47.536;19.066;2023-01-27T09:21:59;100426.31;;;2.02;72.41
60583;BME280;46415;47.536;19.066;2023-01-27T09:25:02;100422.12;;;1.89;71.57
60583;BME280;46415;47.536;19.066;2023-01-27T09:28:05;100421.19;;;1.99;72.71
60583;BME280;46415;47.536;19.066;2023-01-27T09:31:11;100422.06;;;1.97;71.10
60583;BME280;46415;47.536;19.066;2023-01-27T09:34:14;100427.06;;;2.12;71.72
60583;BME280;46415;47.536;19.066;2023-01-27T09:37:19;100426.06;;;2.28;70.78
60583;BME280;46415;47.536;19.066;2023-01-27T09:44:37;100439.09;;;2.02;71.73
60583;BME280;46415;47.536;19.066;2023-01-27T09:58:12;100438.44;;;1.78;80.22
60583;BME280;46415;47.536;19.066;2023-01-27T10:07:59;100432.34;;;1.94;80.42
60583;BME280;46415;47.536;19.066;2023-01-27T10:11:16;100426.31;;;2.01;80.72
60583;BME280;46415;47.536;19.066;2023-01-27T10:21:02;100424.50;;;2.14;80.96
60583;BME280;46415;47.536;19.066;2023-01-27T10:27:20;100431.59;;;1.78;84.02
60583;BME280;46415;47.536;19.066;2023-01-27T10:30:30;100428.16;;;1.82;84.78
60583;BME280;46415;47.536;19.066;2023-01-27T10:33:51;100429.94;;;1.71;85.02
60583;BME280;46415;47.536;19.066;2023-01-27T10:44:23;100421.50;;;1.57;89.62
60583;BME280;46415;47.536;19.066;2023-01-27T10:47:44;100426.63;;;1.60;89.59
60583;BME280;46415;47.536;19.066;2023-01-27T10:51:00;100421.38;;;1.75;88.07
60583;BME280;46415;47.536;19.066;2023-01-27T10:54:11;100422.28;;;1.70;90.10
60583;BME280;46415;47.536;19.066;2023-01-27T10:57:34;100423.97;;;1.72;90.80
60583;BME280;46415;47.536;19.066;2023-01-27T11:00:45;100416.31;;;1.69;91.88
60583;BME280;46415;47.536;19.066;2023-01-27T11:04:29;100408.72;;;1.55;93.10
60583;BME280;46415;47.536;19.066;2023-01-27T11:07:44;100410.34;;;1.70;93.21
60583;BME280;46415;47.536;19.066;2023-01-27T11:10:53;100406.97;;;1.65;94.95
60583;BME280;46415;47.536;19.066;2023-01-27T11:14:20;100406.91;;;1.71;96.86
60583;BME280;46415;47.536;19.066;2023-01-27T11:17:51;100400.16;;;1.62;98.88
60583;BME280;46415;47.536;19.066;2023-01-27T11:20:57;100398.56;;;1.45;100.00
60583;BME280;46415;47.536;19.066;2023-01-27T11:24:22;100387.56;;;1.34;100.00
60583;BME280;46415;47.536;19.066;2023-01-27T11:27:38;100396.09;;;1.28;100.00
60583;BME280;46415;47.536;19.066;2023-01-27T11:40:25;100382.31;;;1.52;100.00
60583;BME280;46415;47.536;19.066;2023-01-27T11:43:29;100382.47;;;1.29;100.00
60583;BME280;46415;47.536;19.066;2023-01-27T11:46:33;100377.97;;;1.64;100.00
60583;BME280;46415;47.536;19.066;2023-01-27T11:49:41;100375.41;;;1.63;100.00
60583;BME280;46415;47.536;19.066;2023-01-27T11:52:48;100373.84;;;1.45;100.00
60583;BME280;46415;47.536;19.066;2023-01-27T11:56:05;100367.78;;;1.60;100.00
60583;BME280;46415;47.536;19.066;2023-01-27T11:59:16;100369.59;;;1.44;100.00
60583;BME280;46415;47.536;19.066;2023-01-27T12:02:26;100361.94;;;1.40;100.00
60583;BME280;46415;47.536;19.066;2023-01-27T12:05:37;100351.75;;;1.34;100.00
60583;BME280;46415;47.536;19.066;2023-01-27T12:08:45;100350.25;;;1.02;100.00
60583;BME280;46415;47.536;19.066;2023-01-27T12:12:08;100349.34;;;1.08;100.00
60583;BME280;46415;47.536;19.066;2023-01-27T12:15:17;100349.25;;;1.29;100.00
60583;BME280;46415;47.536;19.066;2023-01-27T12:18:20;100348.38;;;1.30;100.00
60583;BME280;46415;47.536;19.066;2023-01-27T12:21:44;100342.47;;;1.23;100.00
60583;BME280;46415;47.536;19.066;2023-01-27T12:24:54;100341.53;;;1.37;100.00
60583;BME280;46415;47.536;19.066;2023-01-27T12:28:03;100328.78;;;1.29;100.00
60583;BME280;46415;47.536;19.066;2023-01-27T12:31:12;100334.50;;;1.66;100.00
60583;BME280;46415;47.536;19.066;2023-01-27T12:37:29;100321.50;;;1.87;100.00
60583;BME280;46415;47.536;19.066;2023-01-27T12:40:33;100322.41;;;1.83;100.00
60583;BME280;46415;47.536;19.066;2023-01-27T12:44:07;100319.69;;;1.98;100.00
60583;BME280;46415;47.536;19.066;2023-01-27T12:47:29;100319.13;;;1.66;100.00
60583;BME280;46415;47.536;19.066;2023-01-27T12:50:38;100312.31;;;1.63;100.00
60583;BME280;46415;47.536;19.066;2023-01-27T12:53:41;100318.37;;;1.52;100.00
60583;BME280;46415;47.536;19.066;2023-01-27T12:56:46;100320.12;;;1.47;100.00
60583;BME280;46415;47.536;19.066;2023-01-27T12:59:51;100321.87;;;1.42;100.00
60583;BME280;46415;47.536;19.066;2023-01-27T13:03:03;100314.19;;;1.46;100.00
60583;BME280;46415;47.536;19.066;2023-01-27T13:06:07;100315.78;;;1.58;100.00
60583;BME280;46415;47.536;19.066;2023-01-27T13:09:32;100316.69;;;1.52;100.00
60583;BME280;46415;47.536;19.066;2023-01-27T13:12:53;100322.66;;;1.53;100.00
60583;BME280;46415;47.536;19.066;2023-01-27T13:16:19;100315.03;;;1.44;100.00
60583;BME280;46415;47.536;19.066;2023-01-27T13:19:38;100320.03;;;1.59;100.00
60583;BME280;46415;47.536;19.066;2023-01-27T13:22:55;100329.44;;;1.57;100.00
60583;BME280;46415;47.536;19.066;2023-01-27T13:32:25;100340.72;;;1.30;100.00
60583;BME280;46415;47.536;19.066;2023-01-27T13:35:43;100349.28;;;1.20;100.00
60583;BME280;46415;47.536;19.066;2023-01-27T13:39:06;100351.03;;;1.18;100.00
60583;BME280;46415;47.536;19.066;2023-01-27T13:42:22;100343.28;;;1.26;100.00
60583;BME280;46415;47.536;19.066;2023-01-27T13:45:43;100343.31;;;1.19;100.00
60583;BME280;46415;47.536;19.066;2023-01-27T13:48:56;100337.28;;;1.34;100.00
60583;BME280;46415;47.536;19.066;2023-01-27T13:52:00;100342.34;;;1.40;100.00
60583;BME280;46415;47.536;19.066;2023-01-27T13:55:04;100350.88;;;1.38;100.00
60583;BME280;46415;47.536;19.066;2023-01-27T14:07:40;100339.06;;;1.21;100.00
60583;BME280;46415;47.536;19.066;2023-01-27T14:14:24;100332.88;;;1.50;100.00
60583;BME280;46415;47.536;19.066;2023-01-27T14:21:26;100334.53;;;1.55;100.00
60583;BME280;46415;47.536;19.066;2023-01-27T14:28:28;100334.59;;;1.54;100.00
60583;BME280;46415;47.536;19.066;2023-01-27T14:31:43;100331.97;;;1.60;100.00
60583;BME280;46415;47.536;19.066;2023-01-27T14:38:38;100334.69;;;1.40;100.00
60583;BME280;46415;47.536;19.066;2023-01-27T14:51:43;100334.88;;;1.13;100.00
60583;BME280;46415;47.536;19.066;2023-01-27T14:58:45;100338.34;;;1.00;100.00
60583;BME280;46415;47.536;19.066;2023-01-27T15:05:29;100334.91;;;1.02;100.00
60583;BME280;46415;47.536;19.066;2023-01-27T15:12:02;100325.59;;;0.94;100.00
60583;BME280;46415;47.536;19.066;2023-01-27T15:21:45;100332.41;;;0.90;100.00
60583;BME280;46415;47.536;19.066;2023-01-27T15:28:11;100334.94;;;0.99;100.00
60583;BME280;46415;47.536;19.066;2023-01-27T15:34:21;100340.97;;;0.89;100.00
60583;BME280;46415;47.536;19.066;2023-01-27T15:37:25;100341.81;;;0.85;100.00
60583;BME280;46415;47.536;19.066;2023-01-27T15:41:10;100342.69;;;0.82;100.00
60583;BME280;46415;47.536;19.066;2023-01-27T15:44:26;100346.91;;;0.91;100.00
60583;BME280;46415;47.536;19.066;2023-01-27T15:47:32;100358.00;;;0.84;100.00
60583;BME280;46415;47.536;19.066;2023-01-27T15:50:59;100358.03;;;0.82;100.00
60583;BME280;46415;47.536;19.066;2023-01-27T15:54:05;100363.97;;;0.86;100.00
60583;BME280;46415;47.536;19.066;2023-01-27T15:57:30;100361.38;;;0.91;100.00
60583;BME280;46415;47.536;19.066;2023-01-27T16:00:40;100352.91;;;0.81;100.00
60583;BME280;46415;47.536;19.066;2023-01-27T16:03:46;100344.38;;;0.87;100.00
60583;BME280;46415;47.536;19.066;2023-01-27T16:06:55;100346.06;;;0.88;100.00
60583;BME280;46415;47.536;19.066;2023-01-27T16:10:12;100359.69;;;0.83;100.00
60583;BME280;46415;47.536;19.066;2023-01-27T16:13:24;100352.87;;;0.86;100.00
60583;BME280;46415;47.536;19.066;2023-01-27T16:16:31;100346.06;;;0.85;100.00
60583;BME280;46415;47.536;19.066;2023-01-27T16:19:39;100355.44;;;0.87;100.00
60583;BME280;46415;47.536;19.066;2023-01-27T16:22:55;100358.87;;;0.83;100.00
60583;BME280;46415;47.536;19.066;2023-01-27T16:32:41;100372.44;;;0.91;100.00
60583;BME280;46415;47.536;19.066;2023-01-27T16:35:52;100372.41;;;1.00;100.00
60583;BME280;46415;47.536;19.066;2023-01-27T16:38:58;100380.09;;;1.00;100.00
60583;BME280;46415;47.536;19.066;2023-01-27T16:42:05;100377.56;;;0.94;100.00
60583;BME280;46415;47.536;19.066;2023-01-27T16:45:19;100382.59;;;1.02;100.00
60583;BME280;46415;47.536;19.066;2023-01-27T16:51:32;100389.41;;;1.03;100.00
60583;BME280;46415;47.536;19.066;2023-01-27T16:54:39;100391.09;;;1.11;100.00
60583;BME280;46415;47.536;19.066;2023-01-27T16:57:44;100391.09;;;1.08;100.00
60583;BME280;46415;47.536;19.066;2023-01-27T17:00:50;100397.09;;;1.04;100.00
60583;BME280;46415;47.536;19.066;2023-01-27T17:03:57;100391.09;;;1.11;100.00
60583;BME280;46415;47.536;19.066;2023-01-27T17:07:10;100389.37;;;1.13;100.00
60583;BME280;46415;47.536;19.066;2023-01-27T17:10:15;100392.78;;;1.15;100.00
60583;BME280;46415;47.536;19.066;2023-01-27T17:13:44;100395.34;;;1.12;100.00
60583;BME280;46415;47.536;19.066;2023-01-27T17:16:48;100402.13;;;1.13;100.00
60583;BME280;46415;47.536;19.066;2023-01-27T17:20:03;100412.38;;;1.15;100.00
60583;BME280;46415;47.536;19.066;2023-01-27T17:23:19;100402.97;;;1.21;100.00
60583;BME280;46415;47.536;19.066;2023-01-27T17:26:24;100408.09;;;1.18;100.00
60583;BME280;46415;47.536;19.066;2023-01-27T17:29:35;100416.66;;;1.13;100.00
60583;BME280;46415;47.536;19.066;2023-01-27T17:32:41;100424.34;;;1.07;100.00
60583;BME280;46415;47.536;19.066;2023-01-27T17:35:50;100418.38;;;1.06;100.00
60583;BME280;46415;47.536;19.066;2023-01-27T17:38:54;100414.94;;;1.07;100.00
60583;BME280;46415;47.536;19.066;2023-01-27T17:41:58;100409.81;;;1.13;100.00
60583;BME280;46415;47.536;19.066;2023-01-27T17:45:26;100411.53;;;1.13;100.00
60583;BME280;46415;47.536;19.066;2023-01-27T17:52:10;100406.47;;;1.07;100.00
60583;BME280;46415;47.536;19.066;2023-01-27T17:55:19;100409.91;;;1.01;100.00
60583;BME280;46415;47.536;19.066;2023-01-27T17:58:25;100408.97;;;1.17;100.00
60583;BME280;46415;47.536;19.066;2023-01-27T18:01:28;100419.22;;;1.10;100.00
60583;BME280;46415;47.536;19.066;2023-01-27T18:04:36;100411.53;;;1.08;100.00
60583;BME280;46415;47.536;19.066;2023-01-27T18:07:41;100410.69;;;1.09;100.00
60583;BME280;46415;47.536;19.066;2023-01-27T18:10:44;100420.03;;;1.13;100.00
60583;BME280;46415;47.536;19.066;2023-01-27T18:13:51;100422.63;;;1.12;100.00
60583;BME280;46415;47.536;19.066;2023-01-27T18:17:24;100420.13;;;1.01;100.00
60583;BME280;46415;47.536;19.066;2023-01-27T18:20:32;100425.22;;;1.01;100.00
60583;BME280;46415;47.536;19.066;2023-01-27T18:23:46;100426.91;;;1.02;100.00